^^
Datos históricos de la estación: Murcia-Puente Tocinos
Diario Informe para Julio 2, 2019 Unidades:  Ambas    Inglés   Métrico
Diario Semanal Mensual Anual Configurable
  Máximo: Mínimo: Media:
Temperatura: 85.8 °F /  29.9 °C 75.4 °F /  24.1 °C 79.2 °F /  26.2 °C
Punto de rocio: 70.2 °F /  21.2 °C 62.2 °F /  16.8 °C 68 °F /  20 °C
Humedad: 83% 46% 70%
Velocidad viento: 12mph /  19.3km/h - 5.9mph /  9.5km/h
Racha viento: 22mph /  35.4km/h - -
Viento- - ENE
Presión: 30 in /  1014.2 hPa 29.9 in /  1011.2 hPa -
Precipitación: 0 in /  0.0 mm    
Historical Graphs
 
 
Tabla de datos para Julio 2, 2019
Hora Temperatura Punto de rocio Presión Viento Velocidad viento Racha viento Humedad Intensidad lluvia(por hora) Nubes
00:00 76.8 °F /  24.9 °C 69.4 °F /  20.8 °C 29.9in /  1013.8hPa NE 7mph /  11.3km/h 13mph /  20.9km/h 78% 0in /  0.0mm CLR
00:05 76.6 °F /  24.8 °C 69.6 °F /  20.9 °C 29.9in /  1013.8hPa NE 7mph /  11.3km/h 13mph /  20.9km/h 79% 0in /  0.0mm CLR
00:10 76.6 °F /  24.8 °C 69.6 °F /  20.9 °C 29.9in /  1013.8hPa NE 6.2mph /  10.0km/h 6.9mph /  11.1km/h 79% 0in /  0.0mm CLR
00:15 76.6 °F /  24.8 °C 69.6 °F /  20.9 °C 29.9in /  1013.8hPa ENE 6mph /  9.7km/h 10mph /  16.1km/h 79% 0in /  0.0mm CLR
00:20 76.6 °F /  24.8 °C 69.6 °F /  20.9 °C 29.9in /  1013.7hPa ESE 4.7mph /  7.6km/h 5.8mph /  9.3km/h 79% 0in /  0.0mm CLR
00:25 76.6 °F /  24.8 °C 69.6 °F /  20.9 °C 29.9in /  1013.7hPa ENE 5mph /  8.0km/h 10mph /  16.1km/h 79% 0in /  0.0mm CLR
00:30 76.5 °F /  24.7 °C 69.8 °F /  21.0 °C 29.9in /  1013.7hPa NE 5.2mph /  8.4km/h 5.9mph /  9.5km/h 80% 0in /  0.0mm CLR
00:35 76.5 °F /  24.7 °C 69.8 °F /  21.0 °C 29.9in /  1013.8hPa ENE 5mph /  8.0km/h 8mph /  12.9km/h 80% 0in /  0.0mm CLR
00:40 76.5 °F /  24.7 °C 69.8 °F /  21.0 °C 29.9in /  1013.8hPa NE 4mph /  6.4km/h 6.9mph /  11.1km/h 80% 0in /  0.0mm CLR
00:45 76.5 °F /  24.7 °C 69.8 °F /  21.0 °C 29.9in /  1013.8hPa NE 5mph /  8.0km/h 9mph /  14.5km/h 80% 0in /  0.0mm CLR
00:50 76.5 °F /  24.7 °C 69.8 °F /  21.0 °C 29.9in /  1013.8hPa NE 4.7mph /  7.6km/h 6.9mph /  11.1km/h 80% 0in /  0.0mm CLR
00:55 76.5 °F /  24.7 °C 69.8 °F /  21.0 °C 29.9in /  1013.8hPa NE 5mph /  8.0km/h 7mph /  11.3km/h 80% 0in /  0.0mm CLR
01:00 76.5 °F /  24.7 °C 69.8 °F /  21.0 °C 29.9in /  1013.8hPa NE 5mph /  8.0km/h 7mph /  11.3km/h 80% 0in /  0.0mm CLR
01:05 76.3 °F /  24.6 °C 70 °F /  21.1 °C 29.9in /  1013.8hPa NE 5mph /  8.0km/h 7mph /  11.3km/h 81% 0in /  0.0mm CLR
01:10 76.5 °F /  24.7 °C 70.2 °F /  21.2 °C 29.9in /  1013.8hPa NNE 4mph /  6.4km/h 4.6mph /  7.4km/h 81% 0in /  0.0mm CLR
01:15 76.3 °F /  24.6 °C 70 °F /  21.1 °C 29.9in /  1013.8hPa NE 5mph /  8.0km/h 6mph /  9.7km/h 81% 0in /  0.0mm CLR
01:20 76.3 °F /  24.6 °C 70 °F /  21.1 °C 29.9in /  1013.6hPa ENE 3.1mph /  5.0km/h 4.7mph /  7.6km/h 81% 0in /  0.0mm CLR
01:25 76.3 °F /  24.6 °C 70 °F /  21.1 °C 29.9in /  1013.6hPa ENE 3.1mph /  5.0km/h 4.6mph /  7.4km/h 81% 0in /  0.0mm CLR
01:30 76.3 °F /  24.6 °C 70 °F /  21.1 °C 29.9in /  1013.6hPa East 3.1mph /  5.0km/h 3.5mph /  5.6km/h 81% 0in /  0.0mm CLR
01:35 76.3 °F /  24.6 °C 70 °F /  21.1 °C 29.9in /  1013.6hPa NE 3mph /  4.8km/h 6mph /  9.7km/h 81% 0in /  0.0mm CLR
01:40 76.3 °F /  24.6 °C 69.6 °F /  20.9 °C 29.9in /  1013.6hPa NE 3mph /  4.8km/h 7mph /  11.3km/h 80% 0in /  0.0mm CLR
01:45 76.3 °F /  24.6 °C 69.6 °F /  20.9 °C 29.9in /  1013.6hPa ENE 3mph /  4.8km/h 6mph /  9.7km/h 80% 0in /  0.0mm CLR
01:50 76.3 °F /  24.6 °C 69.6 °F /  20.9 °C 29.9in /  1013.7hPa NNE 2.9mph /  4.7km/h 5.8mph /  9.3km/h 80% 0in /  0.0mm CLR
01:55 76.3 °F /  24.6 °C 69.6 °F /  20.9 °C 29.9in /  1013.7hPa East 2mph /  3.2km/h 6mph /  9.7km/h 80% 0in /  0.0mm CLR
02:00 76.3 °F /  24.6 °C 69.6 °F /  20.9 °C 29.9in /  1013.7hPa East 2mph /  3.2km/h 5mph /  8.0km/h 80% 0in /  0.0mm CLR
02:05 76.3 °F /  24.6 °C 69.6 °F /  20.9 °C 29.9in /  1013.6hPa East 2mph /  3.2km/h 5mph /  8.0km/h 80% 0in /  0.0mm CLR
02:10 76.3 °F /  24.6 °C 69.6 °F /  20.9 °C 29.9in /  1013.6hPa ESE 2.9mph /  4.7km/h 4.6mph /  7.4km/h 80% 0in /  0.0mm CLR
02:15 76.3 °F /  24.6 °C 69.6 °F /  20.9 °C 29.9in /  1013.6hPa ESE 2mph /  3.2km/h 6mph /  9.7km/h 80% 0in /  0.0mm CLR
02:20 76.3 °F /  24.6 °C 69.6 °F /  20.9 °C 29.9in /  1013.6hPa ESE 3mph /  4.8km/h 6mph /  9.7km/h 80% 0in /  0.0mm CLR
02:25 76.3 °F /  24.6 °C 69.6 °F /  20.9 °C 29.9in /  1013.6hPa East 3mph /  4.8km/h 7mph /  11.3km/h 80% 0in /  0.0mm CLR
02:30 76.3 °F /  24.6 °C 69.6 °F /  20.9 °C 29.9in /  1013.6hPa ESE 3.1mph /  5.0km/h 4.6mph /  7.4km/h 80% 0in /  0.0mm CLR
02:35 76.3 °F /  24.6 °C 69.6 °F /  20.9 °C 29.9in /  1013.4hPa ENE 3mph /  4.8km/h 6mph /  9.7km/h 80% 0in /  0.0mm CLR
02:40 76.3 °F /  24.6 °C 69.6 °F /  20.9 °C 29.9in /  1013.4hPa NE 3.1mph /  5.0km/h 4.7mph /  7.6km/h 80% 0in /  0.0mm CLR
02:45 76.5 °F /  24.7 °C 69.8 °F /  21.0 °C 29.9in /  1013.4hPa ENE 3.1mph /  5.0km/h 4.7mph /  7.6km/h 80% 0in /  0.0mm CLR
02:50 76.5 °F /  24.7 °C 69.8 °F /  21.0 °C 29.9in /  1013.3hPa East 3.1mph /  5.0km/h 5.8mph /  9.3km/h 80% 0in /  0.0mm CLR
02:55 76.3 °F /  24.6 °C 69.6 °F /  20.9 °C 29.9in /  1013.3hPa East 3mph /  4.8km/h 6mph /  9.7km/h 80% 0in /  0.0mm CLR
03:00 76.3 °F /  24.6 °C 69.6 °F /  20.9 °C 29.9in /  1013.3hPa East 5mph /  8.0km/h 6mph /  9.7km/h 80% 0in /  0.0mm CLR
03:05 76.3 °F /  24.6 °C 69.6 °F /  20.9 °C 29.9in /  1013.2hPa ESE 4mph /  6.4km/h 5.8mph /  9.3km/h 80% 0in /  0.0mm CLR
03:10 76.1 °F /  24.5 °C 69.4 °F /  20.8 °C 29.9in /  1013.2hPa East 3mph /  4.8km/h 6mph /  9.7km/h 80% 0in /  0.0mm CLR
03:15 76.3 °F /  24.6 °C 69.3 °F /  20.7 °C 29.9in /  1013.2hPa ESE 3mph /  4.8km/h 6mph /  9.7km/h 79% 0in /  0.0mm CLR
03:20 76.3 °F /  24.6 °C 69.6 °F /  20.9 °C 29.9in /  1013.1hPa SSE 2.9mph /  4.7km/h 4.3mph /  6.9km/h 80% 0in /  0.0mm CLR
03:25 76.3 °F /  24.6 °C 69.6 °F /  20.9 °C 29.9in /  1013.1hPa ESE 2mph /  3.2km/h 7mph /  11.3km/h 80% 0in /  0.0mm CLR
03:30 76.3 °F /  24.6 °C 69.6 °F /  20.9 °C 29.9in /  1013.1hPa East 3mph /  4.8km/h 6mph /  9.7km/h 80% 0in /  0.0mm CLR
03:35 76.3 °F /  24.6 °C 69.6 °F /  20.9 °C 29.9in /  1013.1hPa East 3mph /  4.8km/h 6mph /  9.7km/h 80% 0in /  0.0mm CLR
03:40 76.5 °F /  24.7 °C 69.8 °F /  21.0 °C 29.9in /  1013.1hPa East 2.9mph /  4.7km/h 2.9mph /  4.7km/h 80% 0in /  0.0mm CLR
03:45 76.5 °F /  24.7 °C 69.8 °F /  21.0 °C 29.9in /  1013.1hPa East 2mph /  3.2km/h 4mph /  6.4km/h 80% 0in /  0.0mm CLR
03:50 76.5 °F /  24.7 °C 69.4 °F /  20.8 °C 29.9in /  1013.0hPa NE 1.8mph /  2.9km/h 4.6mph /  7.4km/h 79% 0in /  0.0mm CLR
03:55 76.5 °F /  24.7 °C 69.4 °F /  20.8 °C 29.9in /  1013.0hPa NNE 2mph /  3.2km/h 5mph /  8.0km/h 79% 0in /  0.0mm CLR
04:00 76.3 °F /  24.6 °C 69.6 °F /  20.9 °C 29.9in /  1013.0hPa NNE 3mph /  4.8km/h 5mph /  8.0km/h 80% 0in /  0.0mm CLR
04:05 76.3 °F /  24.6 °C 69.6 °F /  20.9 °C 29.9in /  1012.8hPa NNE 3mph /  4.8km/h 6mph /  9.7km/h 80% 0in /  0.0mm CLR
04:10 76.3 °F /  24.6 °C 70 °F /  21.1 °C 29.9in /  1012.8hPa NNE 3mph /  4.8km/h 6mph /  9.7km/h 81% 0in /  0.0mm CLR
04:15 76.3 °F /  24.6 °C 70 °F /  21.1 °C 29.9in /  1012.8hPa NNE 3mph /  4.8km/h 6mph /  9.7km/h 81% 0in /  0.0mm CLR
04:20 76.1 °F /  24.5 °C 69.8 °F /  21.0 °C 29.9in /  1012.7hPa NNE 4mph /  6.4km/h 4.6mph /  7.4km/h 81% 0in /  0.0mm CLR
04:25 76.1 °F /  24.5 °C 69.8 °F /  21.0 °C 29.9in /  1012.7hPa NNE 5mph /  8.0km/h 7mph /  11.3km/h 81% 0in /  0.0mm CLR
04:30 75.9 °F /  24.4 °C 69.6 °F /  20.9 °C 29.9in /  1012.7hPa NE 4mph /  6.4km/h 5.8mph /  9.3km/h 81% 0in /  0.0mm CLR
04:35 75.9 °F /  24.4 °C 69.6 °F /  20.9 °C 29.9in /  1012.6hPa NNE 5mph /  8.0km/h 8mph /  12.9km/h 81% 0in /  0.0mm CLR
04:40 75.9 °F /  24.4 °C 69.6 °F /  20.9 °C 29.9in /  1012.6hPa NE 4.3mph /  6.9km/h 5.8mph /  9.3km/h 81% 0in /  0.0mm CLR
04:45 75.9 °F /  24.4 °C 69.6 °F /  20.9 °C 29.9in /  1012.6hPa NNE 5mph /  8.0km/h 7mph /  11.3km/h 81% 0in /  0.0mm CLR
04:50 75.9 °F /  24.4 °C 69.6 °F /  20.9 °C 29.9in /  1012.5hPa NNE 4.3mph /  6.9km/h 4.6mph /  7.4km/h 81% 0in /  0.0mm CLR
04:55 75.9 °F /  24.4 °C 69.6 °F /  20.9 °C 29.9in /  1012.5hPa North 4.3mph /  6.9km/h 4.6mph /  7.4km/h 81% 0in /  0.0mm CLR
05:00 75.9 °F /  24.4 °C 69.6 °F /  20.9 °C 29.9in /  1012.5hPa NNE 3mph /  4.8km/h 6mph /  9.7km/h 81% 0in /  0.0mm CLR
05:05 75.9 °F /  24.4 °C 69.6 °F /  20.9 °C 29.9in /  1012.4hPa NE 3mph /  4.8km/h 6mph /  9.7km/h 81% 0in /  0.0mm CLR
05:10 76.1 °F /  24.5 °C 69.8 °F /  21.0 °C 29.9in /  1012.4hPa NNE 3.1mph /  5.0km/h 4.6mph /  7.4km/h 81% 0in /  0.0mm CLR
05:15 76.1 °F /  24.5 °C 69.8 °F /  21.0 °C 29.9in /  1012.4hPa NNE 3mph /  4.8km/h 6mph /  9.7km/h 81% 0in /  0.0mm CLR
05:20 76.1 °F /  24.5 °C 69.8 °F /  21.0 °C 29.9in /  1012.4hPa NE 3.6mph /  5.8km/h 5.4mph /  8.7km/h 81% 0in /  0.0mm CLR
05:25 75.9 °F /  24.4 °C 69.6 °F /  20.9 °C 29.9in /  1012.4hPa NNE 3mph /  4.8km/h 6mph /  9.7km/h 81% 0in /  0.0mm CLR
05:30 76.1 °F /  24.5 °C 69.8 °F /  21.0 °C 29.9in /  1012.4hPa NE 3.6mph /  5.8km/h 5.8mph /  9.3km/h 81% 0in /  0.0mm CLR
05:35 75.9 °F /  24.4 °C 69.8 °F /  21.0 °C 29.9in /  1012.5hPa NE 3mph /  4.8km/h 6mph /  9.7km/h 81% 0in /  0.0mm CLR
05:40 75.9 °F /  24.4 °C 69.6 °F /  20.9 °C 29.9in /  1012.5hPa ENE 4mph /  6.4km/h 5.8mph /  9.3km/h 81% 0in /  0.0mm CLR
05:45 76.1 °F /  24.5 °C 69.8 °F /  21.0 °C 29.9in /  1012.5hPa NE 5mph /  8.0km/h 8mph /  12.9km/h 81% 0in /  0.0mm CLR
05:50 76.1 °F /  24.5 °C 69.4 °F /  20.8 °C 29.9in /  1012.4hPa NNE 4.7mph /  7.6km/h 5.8mph /  9.3km/h 80% 0in /  0.0mm CLR
05:55 76.1 °F /  24.5 °C 69.4 °F /  20.8 °C 29.9in /  1012.4hPa NE 4.7mph /  7.6km/h 5.8mph /  9.3km/h 80% 0in /  0.0mm CLR
06:00 76.3 °F /  24.6 °C 69.6 °F /  20.9 °C 29.9in /  1012.4hPa NE 5mph /  8.0km/h 6mph /  9.7km/h 80% 0in /  0.0mm CLR
06:05 76.3 °F /  24.6 °C 69.6 °F /  20.9 °C 29.9in /  1012.3hPa ENE 5mph /  8.0km/h 8mph /  12.9km/h 80% 0in /  0.0mm CLR
06:10 76.3 °F /  24.6 °C 69.6 °F /  20.9 °C 29.9in /  1012.3hPa NE 4mph /  6.4km/h 5.8mph /  9.3km/h 80% 0in /  0.0mm CLR
06:15 76.3 °F /  24.6 °C 69.6 °F /  20.9 °C 29.9in /  1012.3hPa NE 5mph /  8.0km/h 7mph /  11.3km/h 80% 0in /  0.0mm CLR
06:20 76.3 °F /  24.6 °C 69.6 °F /  20.9 °C 29.9in /  1012.4hPa NE 4.7mph /  7.6km/h 8.1mph /  13.0km/h 80% 0in /  0.0mm CLR
06:25 76.1 °F /  24.5 °C 69.4 °F /  20.8 °C 29.9in /  1012.4hPa NE 5mph /  8.0km/h 9mph /  14.5km/h 80% 0in /  0.0mm CLR
06:30 76.1 °F /  24.5 °C 69.4 °F /  20.8 °C 29.9in /  1012.4hPa NE 6mph /  9.7km/h 9mph /  14.5km/h 80% 0in /  0.0mm CLR
06:35 76.3 °F /  24.6 °C 69.6 °F /  20.9 °C 29.9in /  1012.5hPa NE 6mph /  9.7km/h 8mph /  12.9km/h 80% 0in /  0.0mm CLR
06:40 76.1 °F /  24.5 °C 69.4 °F /  20.8 °C 29.9in /  1012.5hPa NE 6mph /  9.7km/h 10mph /  16.1km/h 80% 0in /  0.0mm CLR
06:45 76.1 °F /  24.5 °C 69.4 °F /  20.8 °C 29.9in /  1012.5hPa NE 6mph /  9.7km/h 8mph /  12.9km/h 80% 0in /  0.0mm CLR
06:50 76.1 °F /  24.5 °C 69.1 °F /  20.6 °C 29.9in /  1012.6hPa NE 5.4mph /  8.7km/h 9.2mph /  14.8km/h 79% 0in /  0.0mm CLR
06:55 76.1 °F /  24.5 °C 69.1 °F /  20.6 °C 29.9in /  1012.6hPa NE 6mph /  9.7km/h 10mph /  16.1km/h 79% 0in /  0.0mm CLR
07:00 76.1 °F /  24.5 °C 69.1 °F /  20.6 °C 29.9in /  1012.6hPa NE 7mph /  11.3km/h 10mph /  16.1km/h 79% 0in /  0.0mm CLR
07:05 76.3 °F /  24.6 °C 69.3 °F /  20.7 °C 29.9in /  1012.7hPa NE 7mph /  11.3km/h 9mph /  14.5km/h 79% 0in /  0.0mm CLR
07:10 76.1 °F /  24.5 °C 69.1 °F /  20.6 °C 29.9in /  1012.7hPa NE 6mph /  9.7km/h 9mph /  14.5km/h 79% 0in /  0.0mm CLR
07:15 76.1 °F /  24.5 °C 69.1 °F /  20.6 °C 29.9in /  1012.7hPa NE 6mph /  9.7km/h 10mph /  16.1km/h 79% 0in /  0.0mm CLR
07:20 76.1 °F /  24.5 °C 69.1 °F /  20.6 °C 29.9in /  1012.7hPa NE 6mph /  9.7km/h 9mph /  14.5km/h 79% 0in /  0.0mm CLR
07:25 76.1 °F /  24.5 °C 69.1 °F /  20.6 °C 29.9in /  1012.7hPa NE 6mph /  9.7km/h 9mph /  14.5km/h 79% 0in /  0.0mm CLR
07:30 76.3 °F /  24.6 °C 69.3 °F /  20.7 °C 29.9in /  1012.7hPa NE 5.4mph /  8.7km/h 8.1mph /  13.0km/h 79% 0in /  0.0mm CLR
07:35 76.3 °F /  24.6 °C 69.3 °F /  20.7 °C 29.9in /  1012.8hPa NE 6mph /  9.7km/h 9mph /  14.5km/h 79% 0in /  0.0mm CLR
07:40 76.3 °F /  24.6 °C 69.3 °F /  20.7 °C 29.9in /  1012.8hPa NE 5.9mph /  9.5km/h 4.6mph /  7.4km/h 79% 0in /  0.0mm CLR
07:45 76.3 °F /  24.6 °C 69.3 °F /  20.7 °C 29.9in /  1012.8hPa NE 6mph /  9.7km/h 9mph /  14.5km/h 79% 0in /  0.0mm CLR
07:50 76.3 °F /  24.6 °C 69.3 °F /  20.7 °C 29.9in /  1012.9hPa NE 5mph /  8.0km/h 12mph /  19.3km/h 79% 0in /  0.0mm CLR
07:55 76.3 °F /  24.6 °C 69.3 °F /  20.7 °C 29.9in /  1012.9hPa NE 5mph /  8.0km/h 9mph /  14.5km/h 79% 0in /  0.0mm CLR
08:00 76.3 °F /  24.6 °C 69.3 °F /  20.7 °C 29.9in /  1012.9hPa NE 6mph /  9.7km/h 9mph /  14.5km/h 79% 0in /  0.0mm CLR
08:05 76.3 °F /  24.6 °C 68.9 °F /  20.5 °C 29.9in /  1013.1hPa North 5.4mph /  8.7km/h 8.1mph /  13.0km/h 78% 0in /  0.0mm CLR
08:10 76.5 °F /  24.7 °C 69.1 °F /  20.6 °C 29.9in /  1013.1hPa ENE 5.4mph /  8.7km/h 6.9mph /  11.1km/h 78% 0in /  0.0mm CLR
08:15 76.5 °F /  24.7 °C 69.1 °F /  20.6 °C 29.9in /  1013.1hPa ENE 5.4mph /  8.7km/h 9.2mph /  14.8km/h 78% 0in /  0.0mm CLR
08:20 76.5 °F /  24.7 °C 69.1 °F /  20.6 °C 29.9in /  1013.3hPa North 5.2mph /  8.4km/h 6.9mph /  11.1km/h 78% 0in /  0.0mm CLR
08:25 76.5 °F /  24.7 °C 69.1 °F /  20.6 °C 29.9in /  1013.3hPa ENE 5mph /  8.0km/h 9mph /  14.5km/h 78% 0in /  0.0mm CLR
08:30 76.5 °F /  24.7 °C 69.1 °F /  20.6 °C 29.9in /  1013.3hPa NE 4mph /  6.4km/h 4.6mph /  7.4km/h 78% 0in /  0.0mm CLR
08:35 76.6 °F /  24.8 °C 69.3 °F /  20.7 °C 29.9in /  1013.4hPa NE 5mph /  8.0km/h 8mph /  12.9km/h 78% 0in /  0.0mm CLR
08:40 76.6 °F /  24.8 °C 68.9 °F /  20.5 °C 29.9in /  1013.4hPa ENE 4.3mph /  6.9km/h 8.1mph /  13.0km/h 77% 0in /  0.0mm CLR
08:45 76.6 °F /  24.8 °C 68.9 °F /  20.5 °C 29.9in /  1013.4hPa NE 5mph /  8.0km/h 10mph /  16.1km/h 77% 0in /  0.0mm CLR
08:50 76.6 °F /  24.8 °C 68.9 °F /  20.5 °C 29.9in /  1013.6hPa ENE 6.4mph /  10.3km/h 6.9mph /  11.1km/h 77% 0in /  0.0mm CLR
08:55 76.6 °F /  24.8 °C 68.9 °F /  20.5 °C 29.9in /  1013.6hPa NE 7mph /  11.3km/h 10mph /  16.1km/h 77% 0in /  0.0mm CLR
09:00 76.6 °F /  24.8 °C 69.3 °F /  20.7 °C 29.9in /  1013.6hPa NE 6mph /  9.7km/h 10mph /  16.1km/h 78% 0in /  0.0mm CLR
09:05 76.6 °F /  24.8 °C 69.3 °F /  20.7 °C 29.9in /  1013.7hPa NE 6mph /  9.7km/h 9mph /  14.5km/h 78% 0in /  0.0mm CLR
09:10 76.6 °F /  24.8 °C 69.3 °F /  20.7 °C 29.9in /  1013.7hPa NE 5.4mph /  8.7km/h 9.2mph /  14.8km/h 78% 0in /  0.0mm CLR
09:15 76.6 °F /  24.8 °C 69.3 °F /  20.7 °C 29.9in /  1013.7hPa ENE 6mph /  9.7km/h 10mph /  16.1km/h 78% 0in /  0.0mm CLR
09:20 76.6 °F /  24.8 °C 68.9 °F /  20.5 °C 29.9in /  1013.9hPa North 5.9mph /  9.5km/h 10.4mph /  16.7km/h 77% 0in /  0.0mm CLR
09:25 76.8 °F /  24.9 °C 69.1 °F /  20.6 °C 29.9in /  1013.9hPa ENE 6mph /  9.7km/h 12mph /  19.3km/h 77% 0in /  0.0mm CLR
09:30 76.8 °F /  24.9 °C 69.1 °F /  20.6 °C 29.9in /  1013.9hPa ENE 5mph /  8.0km/h 9mph /  14.5km/h 77% 0in /  0.0mm CLR
09:35 76.8 °F /  24.9 °C 69.1 °F /  20.6 °C 29.9in /  1013.9hPa ENE 5mph /  8.0km/h 14mph /  22.5km/h 77% 0in /  0.0mm CLR
09:40 76.6 °F /  24.8 °C 69.3 °F /  20.7 °C 29.9in /  1013.9hPa NE 7mph /  11.3km/h 13mph /  20.9km/h 78% 0in /  0.0mm CLR
09:45 76.5 °F /  24.7 °C 69.1 °F /  20.6 °C 29.9in /  1013.9hPa NE 7mph /  11.3km/h 13mph /  20.9km/h 78% 0in /  0.0mm CLR
09:50 76.3 °F /  24.6 °C 69.3 °F /  20.7 °C 29.9in /  1014.1hPa NE 6.9mph /  11.1km/h 12.7mph /  20.4km/h 79% 0in /  0.0mm CLR
09:55 75.9 °F /  24.4 °C 69.3 °F /  20.7 °C 29.9in /  1014.1hPa NE 7mph /  11.3km/h 12mph /  19.3km/h 80% 0in /  0.0mm CLR
10:00 75.7 °F /  24.3 °C 69.4 °F /  20.8 °C 29.9in /  1014.1hPa NE 8mph /  12.9km/h 12mph /  19.3km/h 81% 0in /  0.0mm CLR
10:05 75.6 °F /  24.2 °C 70 °F /  21.1 °C 30in /  1014.2hPa ENE 8mph /  12.9km/h 8mph /  12.9km/h 83% 0in /  0.0mm CLR
10:10 75.4 °F /  24.1 °C 70 °F /  21.1 °C 30in /  1014.2hPa ENE 4.7mph /  7.6km/h 6.9mph /  11.1km/h 83% 0in /  0.0mm CLR
10:15 75.4 °F /  24.1 °C 70 °F /  21.1 °C 30in /  1014.2hPa East 5mph /  8.0km/h 6mph /  9.7km/h 83% 0in /  0.0mm CLR
10:20 75.4 °F /  24.1 °C 70 °F /  21.1 °C 29.9in /  1014.1hPa NE 3.6mph /  5.8km/h 5.8mph /  9.3km/h 83% 0in /  0.0mm CLR
10:25 75.6 °F /  24.2 °C 70 °F /  21.1 °C 29.9in /  1014.1hPa ENE 3mph /  4.8km/h 5mph /  8.0km/h 83% 0in /  0.0mm CLR
10:30 75.6 °F /  24.2 °C 70 °F /  21.1 °C 29.9in /  1014.1hPa ENE 3mph /  4.8km/h 6mph /  9.7km/h 83% 0in /  0.0mm CLR
10:35 75.7 °F /  24.3 °C 70.2 °F /  21.2 °C 29.9in /  1014.0hPa ENE 3mph /  4.8km/h 6mph /  9.7km/h 83% 0in /  0.0mm CLR
10:40 75.7 °F /  24.3 °C 70 °F /  21.1 °C 29.9in /  1014.0hPa ENE 3mph /  4.8km/h 5mph /  8.0km/h 82% 0in /  0.0mm CLR
10:45 75.9 °F /  24.4 °C 69.6 °F /  20.9 °C 29.9in /  1014.0hPa East 3mph /  4.8km/h 6mph /  9.7km/h 81% 0in /  0.0mm CLR
10:50 76.1 °F /  24.5 °C 69.8 °F /  21.0 °C 29.9in /  1013.9hPa NE 3.6mph /  5.8km/h 5.8mph /  9.3km/h 81% 0in /  0.0mm CLR
10:55 76.3 °F /  24.6 °C 70 °F /  21.1 °C 29.9in /  1013.9hPa NE 3mph /  4.8km/h 6mph /  9.7km/h 81% 0in /  0.0mm CLR
11:00 76.3 °F /  24.6 °C 69.6 °F /  20.9 °C 29.9in /  1013.9hPa NE 2mph /  3.2km/h 4mph /  6.4km/h 80% 0in /  0.0mm CLR
11:05 76.5 °F /  24.7 °C 69.8 °F /  21.0 °C 29.9in /  1013.8hPa NE 2mph /  3.2km/h 7mph /  11.3km/h 80% 0in /  0.0mm CLR
11:10 76.6 °F /  24.8 °C 70 °F /  21.1 °C 29.9in /  1013.8hPa North 3.1mph /  5.0km/h 4.6mph /  7.4km/h 80% 0in /  0.0mm CLR
11:15 76.8 °F /  24.9 °C 69.8 °F /  21.0 °C 29.9in /  1013.8hPa NE 3mph /  4.8km/h 6mph /  9.7km/h 79% 0in /  0.0mm CLR
11:20 77.2 °F /  25.1 °C 69.8 °F /  21.0 °C 29.9in /  1014.0hPa NNE 3.1mph /  5.0km/h 5.8mph /  9.3km/h 78% 0in /  0.0mm CLR
11:25 77.2 °F /  25.1 °C 69.4 °F /  20.8 °C 29.9in /  1014.0hPa NE 3mph /  4.8km/h 7mph /  11.3km/h 77% 0in /  0.0mm CLR
11:30 77.5 °F /  25.3 °C 70.2 °F /  21.2 °C 29.9in /  1014.0hPa NNE 2mph /  3.2km/h 6mph /  9.7km/h 78% 0in /  0.0mm CLR
11:35 77.5 °F /  25.3 °C 69.4 °F /  20.8 °C 29.9in /  1013.9hPa NNE 2mph /  3.2km/h 7mph /  11.3km/h 76% 0in /  0.0mm CLR
11:40 77.9 °F /  25.5 °C 69.6 °F /  20.9 °C 29.9in /  1013.9hPa NNE 3mph /  4.8km/h 6mph /  9.7km/h 76% 0in /  0.0mm CLR
11:45 78.3 °F /  25.7 °C 69.6 °F /  20.9 °C 29.9in /  1013.9hPa NNE 3mph /  4.8km/h 9mph /  14.5km/h 75% 0in /  0.0mm CLR
11:50 78.4 °F /  25.8 °C 68.4 °F /  20.2 °C 29.9in /  1013.8hPa NE 4.3mph /  6.9km/h 10.4mph /  16.7km/h 71% 0in /  0.0mm CLR
11:55 78.6 °F /  25.9 °C 68.7 °F /  20.4 °C 29.9in /  1013.8hPa NE 5mph /  8.0km/h 12mph /  19.3km/h 72% 0in /  0.0mm CLR
12:00 78.8 °F /  26.0 °C 68.5 °F /  20.3 °C 29.9in /  1013.8hPa NE 6mph /  9.7km/h 8mph /  12.9km/h 71% 0in /  0.0mm CLR
12:05 79.2 °F /  26.2 °C 68.9 °F /  20.5 °C 29.9in /  1013.8hPa NE 6mph /  9.7km/h 10mph /  16.1km/h 71% 0in /  0.0mm CLR
12:10 79.2 °F /  26.2 °C 68.5 °F /  20.3 °C 29.9in /  1013.8hPa East 5.4mph /  8.7km/h 6.9mph /  11.1km/h 70% 0in /  0.0mm CLR
12:15 79.5 °F /  26.4 °C 68.9 °F /  20.5 °C 29.9in /  1013.8hPa ENE 6mph /  9.7km/h 13mph /  20.9km/h 70% 0in /  0.0mm CLR
12:20 79.5 °F /  26.4 °C 68.5 °F /  20.3 °C 29.9in /  1013.7hPa NNE 6.2mph /  10.0km/h 9.2mph /  14.8km/h 69% 0in /  0.0mm CLR
12:25 79.9 °F /  26.6 °C 68.7 °F /  20.4 °C 29.9in /  1013.7hPa ENE 6mph /  9.7km/h 12mph /  19.3km/h 69% 0in /  0.0mm CLR
12:30 80.2 °F /  26.8 °C 69.1 °F /  20.6 °C 29.9in /  1013.7hPa ENE 6mph /  9.7km/h 16mph /  25.7km/h 69% 0in /  0.0mm CLR
12:35 80.8 °F /  27.1 °C 69.3 °F /  20.7 °C 29.9in /  1013.6hPa ENE 6mph /  9.7km/h 16mph /  25.7km/h 68% 0in /  0.0mm CLR
12:40 81 °F /  27.2 °C 69.1 °F /  20.6 °C 29.9in /  1013.6hPa NE 5mph /  8.0km/h 7mph /  11.3km/h 67% 0in /  0.0mm CLR
12:45 81.5 °F /  27.5 °C 69.1 °F /  20.6 °C 29.9in /  1013.6hPa NE 5mph /  8.0km/h 9mph /  14.5km/h 66% 0in /  0.0mm CLR
12:50 81.9 °F /  27.7 °C 68.9 °F /  20.5 °C 29.9in /  1013.5hPa ENE 5.2mph /  8.4km/h 8.1mph /  13.0km/h 65% 0in /  0.0mm CLR
12:55 81.9 °F /  27.7 °C 68.5 °F /  20.3 °C 29.9in /  1013.5hPa NE 5mph /  8.0km/h 13mph /  20.9km/h 64% 0in /  0.0mm CLR
13:00 81.9 °F /  27.7 °C 68.5 °F /  20.3 °C 29.9in /  1013.5hPa NE 6mph /  9.7km/h 10mph /  16.1km/h 64% 0in /  0.0mm CLR
13:05 82 °F /  27.8 °C 68.2 °F /  20.1 °C 29.9in /  1013.5hPa ENE 6mph /  9.7km/h 10mph /  16.1km/h 63% 0in /  0.0mm CLR
13:10 82.2 °F /  27.9 °C 67.8 °F /  19.9 °C 29.9in /  1013.5hPa NNE 5.2mph /  8.4km/h 9.2mph /  14.8km/h 62% 0in /  0.0mm CLR
13:15 82.6 °F /  28.1 °C 68.2 °F /  20.1 °C 29.9in /  1013.5hPa NNE 5mph /  8.0km/h 9mph /  14.5km/h 62% 0in /  0.0mm CLR
13:20 82.8 °F /  28.2 °C 68.4 °F /  20.2 °C 29.9in /  1013.3hPa NNE 5mph /  8.0km/h 8mph /  12.9km/h 62% 0in /  0.0mm CLR
13:25 82.8 °F /  28.2 °C 67.5 °F /  19.7 °C 29.9in /  1013.3hPa NE 5mph /  8.0km/h 14mph /  22.5km/h 60% 0in /  0.0mm CLR
13:30 82.9 °F /  28.3 °C 66.7 °F /  19.3 °C 29.9in /  1013.3hPa NE 6mph /  9.7km/h 14mph /  22.5km/h 58% 0in /  0.0mm CLR
13:35 83.7 °F /  28.7 °C 66.7 °F /  19.3 °C 29.9in /  1013.3hPa NE 6mph /  9.7km/h 14mph /  22.5km/h 57% 0in /  0.0mm CLR
13:40 83.8 °F /  28.8 °C 65.8 °F /  18.8 °C 29.9in /  1013.3hPa East 7mph /  11.3km/h 14mph /  22.5km/h 55% 0in /  0.0mm CLR
13:45 83.8 °F /  28.8 °C 66.9 °F /  19.4 °C 29.9in /  1013.3hPa East 7mph /  11.3km/h 13mph /  20.9km/h 57% 0in /  0.0mm CLR
13:50 84 °F /  28.9 °C 67.1 °F /  19.5 °C 29.9in /  1013.2hPa ENE 7mph /  11.3km/h 14mph /  22.5km/h 57% 0in /  0.0mm CLR
13:55 84.2 °F /  29.0 °C 66.7 °F /  19.3 °C 29.9in /  1013.2hPa NE 7mph /  11.3km/h 14mph /  22.5km/h 56% 0in /  0.0mm CLR
14:00 84.4 °F /  29.1 °C 66.9 °F /  19.4 °C 29.9in /  1013.2hPa ENE 7mph /  11.3km/h 12mph /  19.3km/h 56% 0in /  0.0mm CLR
14:05 84.7 °F /  29.3 °C 66.4 °F /  19.1 °C 29.9in /  1013.0hPa East 7mph /  11.3km/h 13mph /  20.9km/h 54% 0in /  0.0mm CLR
14:10 84.7 °F /  29.3 °C 66.4 °F /  19.1 °C 29.9in /  1013.0hPa NE 6.4mph /  10.3km/h 6.9mph /  11.1km/h 54% 0in /  0.0mm CLR
14:15 84.9 °F /  29.4 °C 66.9 °F /  19.4 °C 29.9in /  1013.0hPa ENE 7mph /  11.3km/h 14mph /  22.5km/h 55% 0in /  0.0mm CLR
14:20 84.9 °F /  29.4 °C 66.4 °F /  19.1 °C 29.9in /  1012.9hPa NE 6.9mph /  11.1km/h 12.7mph /  20.4km/h 54% 0in /  0.0mm CLR
14:25 84.7 °F /  29.3 °C 66.7 °F /  19.3 °C 29.9in /  1012.9hPa NE 7mph /  11.3km/h 15mph /  24.1km/h 55% 0in /  0.0mm CLR
14:30 85.1 °F /  29.5 °C 66.6 °F /  19.2 °C 29.9in /  1012.9hPa ENE 6.9mph /  11.1km/h 15mph /  24.1km/h 54% 0in /  0.0mm CLR
14:35 84.9 °F /  29.4 °C 66.4 °F /  19.1 °C 29.9in /  1012.8hPa ENE 7mph /  11.3km/h 14mph /  22.5km/h 54% 0in /  0.0mm CLR
14:40 84.9 °F /  29.4 °C 65.8 °F /  18.8 °C 29.9in /  1012.8hPa ESE 6.4mph /  10.3km/h 13.8mph /  22.2km/h 53% 0in /  0.0mm CLR
14:45 84.7 °F /  29.3 °C 65.7 °F /  18.7 °C 29.9in /  1012.8hPa East 7mph /  11.3km/h 14mph /  22.5km/h 53% 0in /  0.0mm CLR
14:50 84.6 °F /  29.2 °C 65.5 °F /  18.6 °C 29.9in /  1012.7hPa SE 8.1mph /  13.0km/h 4.6mph /  7.4km/h 53% 0in /  0.0mm CLR
14:55 84.9 °F /  29.4 °C 64.8 °F /  18.2 °C 29.9in /  1012.7hPa NE 8mph /  12.9km/h 18mph /  29.0km/h 51% 0in /  0.0mm CLR
15:00 84.9 °F /  29.4 °C 64.2 °F /  17.9 °C 29.9in /  1012.7hPa NE 8mph /  12.9km/h 14mph /  22.5km/h 50% 0in /  0.0mm CLR
15:05 85.3 °F /  29.6 °C 64 °F /  17.8 °C 29.9in /  1012.5hPa NE 8mph /  12.9km/h 16mph /  25.7km/h 49% 0in /  0.0mm CLR
15:10 85.3 °F /  29.6 °C 65.1 °F /  18.4 °C 29.9in /  1012.5hPa NE 8mph /  12.9km/h 12mph /  19.3km/h 51% 0in /  0.0mm CLR
15:15 85.5 °F /  29.7 °C 63 °F /  17.2 °C 29.9in /  1012.5hPa NE 8mph /  12.9km/h 21mph /  33.8km/h 47% 0in /  0.0mm CLR
15:20 85.5 °F /  29.7 °C 62.2 °F /  16.8 °C 29.9in /  1012.4hPa NNE 10.7mph /  17.2km/h 15mph /  24.1km/h 46% 0in /  0.0mm CLR
15:25 85.3 °F /  29.6 °C 64 °F /  17.8 °C 29.9in /  1012.4hPa NE 10mph /  16.1km/h 16mph /  25.7km/h 49% 0in /  0.0mm CLR
15:30 85.6 °F /  29.8 °C 63.1 °F /  17.3 °C 29.9in /  1012.4hPa East 8.7mph /  14.0km/h 11.5mph /  18.5km/h 47% 0in /  0.0mm CLR
15:35 85.8 °F /  29.9 °C 62.6 °F /  17.0 °C 29.9in /  1012.2hPa ENE 9mph /  14.5km/h 16mph /  25.7km/h 46% 0in /  0.0mm CLR
15:40 85.8 °F /  29.9 °C 62.6 °F /  17.0 °C 29.9in /  1012.2hPa NE 8.5mph /  13.7km/h 13.8mph /  22.2km/h 46% 0in /  0.0mm CLR
15:45 85.6 °F /  29.8 °C 63.7 °F /  17.6 °C 29.9in /  1012.2hPa NNE 8mph /  12.9km/h 20mph /  32.2km/h 48% 0in /  0.0mm CLR
15:50 85.5 °F /  29.7 °C 64.8 °F /  18.2 °C 29.9in /  1012.2hPa East 10mph /  16.1km/h 15mph /  24.1km/h 50% 0in /  0.0mm CLR
15:55 85.6 °F /  29.8 °C 63.7 °F /  17.6 °C 29.9in /  1012.2hPa ENE 10mph /  16.1km/h 14mph /  22.5km/h 48% 0in /  0.0mm CLR
16:00 85.5 °F /  29.7 °C 64.2 °F /  17.9 °C 29.9in /  1012.2hPa ENE 8mph /  12.9km/h 18mph /  29.0km/h 49% 0in /  0.0mm CLR
16:05 84.9 °F /  29.4 °C 63.7 °F /  17.6 °C 29.9in /  1012.0hPa NE 8mph /  12.9km/h 17mph /  27.4km/h 49% 0in /  0.0mm CLR
16:10 85.1 °F /  29.5 °C 63.9 °F /  17.7 °C 29.9in /  1012.0hPa NE 10.7mph /  17.2km/h 17.3mph /  27.8km/h 49% 0in /  0.0mm CLR
16:15 85.3 °F /  29.6 °C 63.9 °F /  17.7 °C 29.9in /  1012.0hPa NE 10mph /  16.1km/h 17mph /  27.4km/h 49% 0in /  0.0mm CLR
16:20 85.5 °F /  29.7 °C 63.7 °F /  17.6 °C 29.9in /  1012.0hPa NE 9mph /  14.5km/h 15mph /  24.1km/h 48% 0in /  0.0mm CLR
16:25 85.8 °F /  29.9 °C 63.3 °F /  17.4 °C 29.9in /  1012.0hPa NE 9mph /  14.5km/h 17mph /  27.4km/h 47% 0in /  0.0mm CLR
16:30 85.5 °F /  29.7 °C 63.5 °F /  17.5 °C 29.9in /  1012.0hPa NE 9mph /  14.5km/h 22mph /  35.4km/h 48% 0in /  0.0mm CLR
16:35 85.6 °F /  29.8 °C 64.2 °F /  17.9 °C 29.9in /  1012.0hPa NE 9mph /  14.5km/h 16mph /  25.7km/h 49% 0in /  0.0mm CLR
16:40 85.6 °F /  29.8 °C 64.9 °F /  18.3 °C 29.9in /  1012.0hPa ENE 8mph /  12.9km/h 17mph /  27.4km/h 50% 0in /  0.0mm CLR
16:45 85.3 °F /  29.6 °C 64.6 °F /  18.1 °C 29.9in /  1012.0hPa ENE 8mph /  12.9km/h 19mph /  30.6km/h 50% 0in /  0.0mm CLR
16:50 84.9 °F /  29.4 °C 64.8 °F /  18.2 °C 29.9in /  1011.9hPa NE 12mph /  19.3km/h 18mph /  29.0km/h 51% 0in /  0.0mm CLR
16:55 85.1 °F /  29.5 °C 64.9 °F /  18.3 °C 29.9in /  1011.9hPa NE 12mph /  19.3km/h 18mph /  29.0km/h 51% 0in /  0.0mm CLR
17:00 85.3 °F /  29.6 °C 65.7 °F /  18.7 °C 29.9in /  1011.9hPa NE 9mph /  14.5km/h 21mph /  33.8km/h 52% 0in /  0.0mm CLR
17:05 85.3 °F /  29.6 °C 64.9 °F /  18.3 °C 29.9in /  1011.8hPa NE 9mph /  14.5km/h 17mph /  27.4km/h 51% 0in /  0.0mm CLR
17:10 85.5 °F /  29.7 °C 65.3 °F /  18.5 °C 29.9in /  1011.8hPa NE 10mph /  16.1km/h 15mph /  24.1km/h 51% 0in /  0.0mm CLR
17:15 85.5 °F /  29.7 °C 65.8 °F /  18.8 °C 29.9in /  1011.8hPa ENE 10mph /  16.1km/h 16mph /  25.7km/h 52% 0in /  0.0mm CLR
17:20 85.3 °F /  29.6 °C 64.6 °F /  18.1 °C 29.9in /  1011.6hPa ENE 9.2mph /  14.8km/h 16.1mph /  25.9km/h 50% 0in /  0.0mm CLR
17:25 85.1 °F /  29.5 °C 65.5 °F /  18.6 °C 29.9in /  1011.6hPa ENE 9mph /  14.5km/h 17mph /  27.4km/h 52% 0in /  0.0mm CLR
17:30 85.3 °F /  29.6 °C 66.2 °F /  19.0 °C 29.9in /  1011.6hPa ENE 10mph /  16.1km/h 19mph /  30.6km/h 53% 0in /  0.0mm CLR
17:35 84.7 °F /  29.3 °C 65.8 °F /  18.8 °C 29.9in /  1011.6hPa ENE 10mph /  16.1km/h 20mph /  32.2km/h 53% 0in /  0.0mm CLR
17:40 84.4 °F /  29.1 °C 65.8 °F /  18.8 °C 29.9in /  1011.6hPa North 9.7mph /  15.6km/h 15mph /  24.1km/h 54% 0in /  0.0mm CLR
17:45 84 °F /  28.9 °C 65.7 °F /  18.7 °C 29.9in /  1011.6hPa ENE 9mph /  14.5km/h 18mph /  29.0km/h 54% 0in /  0.0mm CLR
17:50 84.4 °F /  29.1 °C 65.5 °F /  18.6 °C 29.9in /  1011.4hPa ENE 10mph /  16.1km/h 17.3mph /  27.8km/h 53% 0in /  0.0mm CLR
17:55 84 °F /  28.9 °C 65.7 °F /  18.7 °C 29.9in /  1011.4hPa ENE 10mph /  16.1km/h 21mph /  33.8km/h 54% 0in /  0.0mm CLR
18:00 83.8 °F /  28.8 °C 66 °F /  18.9 °C 29.9in /  1011.4hPa ENE 10mph /  16.1km/h 14mph /  22.5km/h 55% 0in /  0.0mm CLR
18:05 84.4 °F /  29.1 °C 65.8 °F /  18.8 °C 29.9in /  1011.4hPa ENE 10mph /  16.1km/h 13mph /  20.9km/h 54% 0in /  0.0mm CLR
18:10 84.4 °F /  29.1 °C 66.4 °F /  19.1 °C 29.9in /  1011.4hPa ENE 8mph /  12.9km/h 18mph /  29.0km/h 55% 0in /  0.0mm CLR
18:15 84 °F /  28.9 °C 66.2 °F /  19.0 °C 29.9in /  1011.4hPa ENE 8mph /  12.9km/h 16mph /  25.7km/h 55% 0in /  0.0mm CLR
18:20 83.8 °F /  28.8 °C 66.6 °F /  19.2 °C 29.9in /  1011.4hPa ENE 8mph /  12.9km/h 17mph /  27.4km/h 56% 0in /  0.0mm CLR
18:25 83.7 °F /  28.7 °C 65.8 °F /  18.8 °C 29.9in /  1011.4hPa NE 8mph /  12.9km/h 17mph /  27.4km/h 55% 0in /  0.0mm CLR
18:30 83.5 °F /  28.6 °C 66 °F /  18.9 °C 29.9in /  1011.4hPa ENE 10mph /  16.1km/h 16mph /  25.7km/h 56% 0in /  0.0mm CLR
18:35 83.1 °F /  28.4 °C 66.4 °F /  19.1 °C 29.9in /  1011.4hPa ENE 10mph /  16.1km/h 19mph /  30.6km/h 57% 0in /  0.0mm CLR
18:40 82.9 °F /  28.3 °C 66 °F /  18.9 °C 29.9in /  1011.4hPa ENE 10mph /  16.1km/h 20mph /  32.2km/h 57% 0in /  0.0mm CLR
18:45 82.9 °F /  28.3 °C 65.7 °F /  18.7 °C 29.9in /  1011.4hPa ENE 10mph /  16.1km/h 15mph /  24.1km/h 56% 0in /  0.0mm CLR
18:50 82.9 °F /  28.3 °C 65.7 °F /  18.7 °C 29.9in /  1011.3hPa ENE 9mph /  14.5km/h 15mph /  24.1km/h 56% 0in /  0.0mm CLR
18:55 82.8 °F /  28.2 °C 66 °F /  18.9 °C 29.9in /  1011.3hPa NE 9mph /  14.5km/h 20mph /  32.2km/h 57% 0in /  0.0mm CLR
19:00 82.6 °F /  28.1 °C 65.8 °F /  18.8 °C 29.9in /  1011.3hPa NE 10mph /  16.1km/h 20mph /  32.2km/h 57% 0in /  0.0mm CLR
19:05 82.8 °F /  28.2 °C 65.5 °F /  18.6 °C 29.9in /  1011.3hPa NE 10mph /  16.1km/h 15mph /  24.1km/h 56% 0in /  0.0mm CLR
19:10 82.4 °F /  28.0 °C 65.1 °F /  18.4 °C 29.9in /  1011.3hPa NE 9mph /  14.5km/h 15mph /  24.1km/h 56% 0in /  0.0mm CLR
19:15 82.6 °F /  28.1 °C 65.1 °F /  18.4 °C 29.9in /  1011.3hPa NE 9mph /  14.5km/h 15mph /  24.1km/h 56% 0in /  0.0mm CLR
19:20 82.6 °F /  28.1 °C 65.3 °F /  18.5 °C 29.9in /  1011.2hPa NE 8mph /  12.9km/h 14mph /  22.5km/h 56% 0in /  0.0mm CLR
19:25 82.6 °F /  28.1 °C 65.3 °F /  18.5 °C 29.9in /  1011.2hPa NE 8mph /  12.9km/h 17mph /  27.4km/h 56% 0in /  0.0mm CLR
19:30 82 °F /  27.8 °C 64.8 °F /  18.2 °C 29.9in /  1011.2hPa NE 9mph /  14.5km/h 15mph /  24.1km/h 56% 0in /  0.0mm CLR
19:35 82 °F /  27.8 °C 64.8 °F /  18.2 °C 29.9in /  1011.4hPa NE 9mph /  14.5km/h 18mph /  29.0km/h 56% 0in /  0.0mm CLR
19:40 81.9 °F /  27.7 °C 65.1 °F /  18.4 °C 29.9in /  1011.4hPa NE 10mph /  16.1km/h 17mph /  27.4km/h 57% 0in /  0.0mm CLR
19:45 81.5 °F /  27.5 °C 65.3 °F /  18.5 °C 29.9in /  1011.4hPa NE 10mph /  16.1km/h 19mph /  30.6km/h 58% 0in /  0.0mm CLR
19:50 81.7 °F /  27.6 °C 66 °F /  18.9 °C 29.9in /  1011.2hPa NE 9mph /  14.5km/h 14mph /  22.5km/h 59% 0in /  0.0mm CLR
19:55 81.7 °F /  27.6 °C 65.5 °F /  18.6 °C 29.9in /  1011.2hPa NE 9mph /  14.5km/h 14mph /  22.5km/h 58% 0in /  0.0mm CLR
20:00 81.3 °F /  27.4 °C 66 °F /  18.9 °C 29.9in /  1011.2hPa NE 8mph /  12.9km/h 14mph /  22.5km/h 60% 0in /  0.0mm CLR
20:05 81.5 °F /  27.5 °C 66.4 °F /  19.1 °C 29.9in /  1011.3hPa NE 8mph /  12.9km/h 12mph /  19.3km/h 60% 0in /  0.0mm CLR
20:10 81.1 °F /  27.3 °C 66.4 °F /  19.1 °C 29.9in /  1011.3hPa ENE 7.6mph /  12.2km/h 16.1mph /  25.9km/h 61% 0in /  0.0mm CLR
20:15 81 °F /  27.2 °C 66.2 °F /  19.0 °C 29.9in /  1011.3hPa NE 8mph /  12.9km/h 16mph /  25.7km/h 61% 0in /  0.0mm CLR
20:20 80.8 °F /  27.1 °C 66.6 °F /  19.2 °C 29.9in /  1011.4hPa NE 8.5mph /  13.7km/h 16.1mph /  25.9km/h 62% 0in /  0.0mm CLR
20:25 80.6 °F /  27.0 °C 66.4 °F /  19.1 °C 29.9in /  1011.4hPa NE 8mph /  12.9km/h 16mph /  25.7km/h 62% 0in /  0.0mm CLR
20:30 80.4 °F /  26.9 °C 66.7 °F /  19.3 °C 29.9in /  1011.4hPa NE 9mph /  14.5km/h 14mph /  22.5km/h 63% 0in /  0.0mm CLR
20:35 80.4 °F /  26.9 °C 66.7 °F /  19.3 °C 29.9in /  1011.6hPa NE 9mph /  14.5km/h 12mph /  19.3km/h 63% 0in /  0.0mm CLR
20:40 80.4 °F /  26.9 °C 66.7 °F /  19.3 °C 29.9in /  1011.6hPa NE 6.2mph /  10.0km/h 8.1mph /  13.0km/h 63% 0in /  0.0mm CLR
20:45 80.4 °F /  26.9 °C 66.7 °F /  19.3 °C 29.9in /  1011.6hPa NE 6mph /  9.7km/h 10mph /  16.1km/h 63% 0in /  0.0mm CLR
20:50 80.2 °F /  26.8 °C 66.9 °F /  19.4 °C 29.9in /  1011.7hPa NE 5.9mph /  9.5km/h 8.1mph /  13.0km/h 64% 0in /  0.0mm CLR
20:55 79.9 °F /  26.6 °C 67.1 °F /  19.5 °C 29.9in /  1011.7hPa ENE 6mph /  9.7km/h 13mph /  20.9km/h 65% 0in /  0.0mm CLR
21:00 79.9 °F /  26.6 °C 67.1 °F /  19.5 °C 29.9in /  1011.7hPa ENE 6mph /  9.7km/h 12mph /  19.3km/h 65% 0in /  0.0mm CLR
21:05 79.5 °F /  26.4 °C 67.3 °F /  19.6 °C 29.9in /  1011.4hPa ENE 6mph /  9.7km/h 14mph /  22.5km/h 66% 0in /  0.0mm CLR
21:10 79.3 °F /  26.3 °C 67.5 °F /  19.7 °C 29.9in /  1011.4hPa NNE 6.2mph /  10.0km/h 8.1mph /  13.0km/h 67% 0in /  0.0mm CLR
21:15 79.2 °F /  26.2 °C 67.3 °F /  19.6 °C 29.9in /  1011.4hPa ENE 6mph /  9.7km/h 10mph /  16.1km/h 67% 0in /  0.0mm CLR
21:20 79 °F /  26.1 °C 67.1 °F /  19.5 °C 29.9in /  1011.5hPa East 5.4mph /  8.7km/h 8.1mph /  13.0km/h 67% 0in /  0.0mm CLR
21:25 79 °F /  26.1 °C 67.5 °F /  19.7 °C 29.9in /  1011.5hPa ENE 6mph /  9.7km/h 9mph /  14.5km/h 68% 0in /  0.0mm CLR
21:30 78.6 °F /  25.9 °C 67.6 °F /  19.8 °C 29.9in /  1011.5hPa NE 5.9mph /  9.5km/h 9.2mph /  14.8km/h 69% 0in /  0.0mm CLR
21:35 78.4 °F /  25.8 °C 67.8 °F /  19.9 °C 29.9in /  1011.6hPa NE 6mph /  9.7km/h 12mph /  19.3km/h 70% 0in /  0.0mm CLR
21:40 78.3 °F /  25.7 °C 67.6 °F /  19.8 °C 29.9in /  1011.6hPa NE 6.2mph /  10.0km/h 11.5mph /  18.5km/h 70% 0in /  0.0mm CLR
21:45 78.1 °F /  25.6 °C 67.5 °F /  19.7 °C 29.9in /  1011.6hPa NE 6mph /  9.7km/h 12mph /  19.3km/h 70% 0in /  0.0mm CLR
21:50 77.9 °F /  25.5 °C 67.6 °F /  19.8 °C 29.9in /  1011.8hPa NE 7mph /  11.3km/h 12mph /  19.3km/h 71% 0in /  0.0mm CLR
21:55 77.7 °F /  25.4 °C 68 °F /  20.0 °C 29.9in /  1011.8hPa NE 7mph /  11.3km/h 12mph /  19.3km/h 72% 0in /  0.0mm CLR
22:00 77.5 °F /  25.3 °C 68.2 °F /  20.1 °C 29.9in /  1011.8hPa NE 7mph /  11.3km/h 9mph /  14.5km/h 73% 0in /  0.0mm CLR
22:05 77.5 °F /  25.3 °C 68.2 °F /  20.1 °C 29.9in /  1012.0hPa NE 7mph /  11.3km/h 10mph /  16.1km/h 73% 0in /  0.0mm CLR
22:10 77.4 °F /  25.2 °C 68 °F /  20.0 °C 29.9in /  1012.0hPa NNE 6.4mph /  10.3km/h 9.2mph /  14.8km/h 73% 0in /  0.0mm CLR
22:15 77.4 °F /  25.2 °C 68 °F /  20.0 °C 29.9in /  1012.0hPa NE 7mph /  11.3km/h 10mph /  16.1km/h 73% 0in /  0.0mm CLR
22:20 77.2 °F /  25.1 °C 67.8 °F /  19.9 °C 29.9in /  1012.3hPa North 6.2mph /  10.0km/h 5.2mph /  8.4km/h 73% 0in /  0.0mm CLR
22:25 77.2 °F /  25.1 °C 67.8 °F /  19.9 °C 29.9in /  1012.3hPa NE 6mph /  9.7km/h 9mph /  14.5km/h 73% 0in /  0.0mm CLR
22:30 76.8 °F /  24.9 °C 67.8 °F /  19.9 °C 29.9in /  1012.3hPa NE 5.2mph /  8.4km/h 6.9mph /  11.1km/h 74% 0in /  0.0mm CLR
22:35 76.8 °F /  24.9 °C 68.4 °F /  20.2 °C 29.9in /  1012.4hPa NE 5mph /  8.0km/h 9mph /  14.5km/h 75% 0in /  0.0mm CLR
22:40 76.6 °F /  24.8 °C 68.2 °F /  20.1 °C 29.9in /  1012.4hPa NE 6mph /  9.7km/h 8mph /  12.9km/h 75% 0in /  0.0mm CLR
22:45 76.6 °F /  24.8 °C 68.5 °F /  20.3 °C 29.9in /  1012.4hPa NE 6mph /  9.7km/h 8mph /  12.9km/h 76% 0in /  0.0mm CLR
22:50 76.6 °F /  24.8 °C 68.5 °F /  20.3 °C 29.9in /  1012.5hPa NE 5mph /  8.0km/h 8mph /  12.9km/h 76% 0in /  0.0mm CLR
22:55 76.6 °F /  24.8 °C 68.9 °F /  20.5 °C 29.9in /  1012.5hPa NE 5mph /  8.0km/h 8mph /  12.9km/h 77% 0in /  0.0mm CLR
23:00 76.5 °F /  24.7 °C 69.1 °F /  20.6 °C 29.9in /  1012.5hPa NE 5mph /  8.0km/h 7mph /  11.3km/h 78% 0in /  0.0mm CLR
23:05 76.3 °F /  24.6 °C 69.3 °F /  20.7 °C 29.9in /  1012.7hPa NE 5mph /  8.0km/h 9mph /  14.5km/h 79% 0in /  0.0mm CLR
23:10 76.3 °F /  24.6 °C 69.3 °F /  20.7 °C 29.9in /  1012.7hPa NE 5.4mph /  8.7km/h 8.5mph /  13.7km/h 79% 0in /  0.0mm CLR
23:15 75.9 °F /  24.4 °C 69.4 °F /  20.8 °C 29.9in /  1012.7hPa NE 6mph /  9.7km/h 10mph /  16.1km/h 80% 0in /  0.0mm CLR
23:20 75.9 °F /  24.4 °C 69.3 °F /  20.7 °C 29.9in /  1012.7hPa NE 6mph /  9.7km/h 10mph /  16.1km/h 80% 0in /  0.0mm CLR
23:25 75.9 °F /  24.4 °C 69.3 °F /  20.7 °C 29.9in /  1012.7hPa NE 6mph /  9.7km/h 7mph /  11.3km/h 80% 0in /  0.0mm CLR
23:30 75.9 °F /  24.4 °C 69.3 °F /  20.7 °C 29.9in /  1012.7hPa NE 5mph /  8.0km/h 7mph /  11.3km/h 80% 0in /  0.0mm CLR
23:35 75.7 °F /  24.3 °C 69.4 °F /  20.8 °C 29.9in /  1012.8hPa NE 5mph /  8.0km/h 7mph /  11.3km/h 81% 0in /  0.0mm CLR
23:40 75.7 °F /  24.3 °C 69.4 °F /  20.8 °C 29.9in /  1012.8hPa NE 5mph /  8.0km/h 7mph /  11.3km/h 81% 0in /  0.0mm CLR
23:45 75.6 °F /  24.2 °C 69.6 °F /  20.9 °C 29.9in /  1012.8hPa NE 5mph /  8.0km/h 8mph /  12.9km/h 82% 0in /  0.0mm CLR
23:50 75.6 °F /  24.2 °C 69.6 °F /  20.9 °C 29.9in /  1012.8hPa NE 4mph /  6.4km/h 5.8mph /  9.3km/h 82% 0in /  0.0mm CLR
23:55 75.4 °F /  24.1 °C 70 °F /  21.1 °C 29.9in /  1012.8hPa NE 5mph /  8.0km/h 7mph /  11.3km/h 83% 0in /  0.0mm CLR
Murcia-Puente Tocinos, España
Compliments of Weather Underground - 2.75 mb

La estación de MeteoMurcia.com, publica sus datos en los siguientes proyectos:

Weather Underground PWS IMURCIAP2 Meteoclimatic www.awekas.at

W3Counter
Web Analytics